AirNav   Air Wisconsin pilot careers
 
 381 users online  

2I3 Rough River State Park Airport
Falls of Rough, Kentucky, USA

GOING TO FALLS OF ROUGH?


FAA INFORMATION EFFECTIVE 19 JULY 2018

Location

FAA Identifier: 2I3
Lat/Long: 37-36-35.3000N / 086-30-25.8000W
37-36.588333N / 086-30.430000W
37.6098056 / -86.5071667
(estimated)
Elevation: 577 ft. / 175.9 m (surveyed)
Variation: 01W (1985)
From city: 3 miles NE of FALLS-OF-ROUGH, KY
Time zone: UTC -5 (UTC -6 during Standard Time)
Zip code: 40119

Airport Operations

Airport use: Open to the public
Activation date: 05/1963
Control tower: no
ARTCC: INDIANAPOLIS CENTER
FSS: LOUISVILLE FLIGHT SERVICE STATION
NOTAMs facility: LOU (NOTAM-D service available)
Attendance: UNATNDD
Wind indicator: lighted
Segmented circle: yes
Lights: ACTVT MIRL RY 2/20; REIL RY 2 & 20 - CTAF. PAPI RY 2 & 20 OPER CONTINUOUSLY.
Beacon: white-green (lighted land airport)
Operates sunset to sunrise.

Airport Communications

CTAF/UNICOM: 122.8
WX AWOS-3PT at JQD (19 nm SW): 132.1 (270-298-7936)

Nearby radio navigation aids

VOR radial/distance  VOR name  Freq  Var
MYSr217/(21.1)MYSTIC VOR108.2001W
FTKr236/31.0FORT KNOX VOR/DME109.6001W
OWBr108/32.3OWENSBORO VOR/DME108.6004W
CCTr070/38.5CENTRAL CITY VORTAC109.8001W
EWOr267/39.5NEW HOPE VOR/DME110.8001E

 
NDB name  Hdg/Dist  Freq  Var  ID
GODMAN233/32.739603WGOI --. --- ..

Airport Services

Parking: tiedowns
Airframe service: NONE
Powerplant service: NONE
Bottled oxygen: NONE
Bulk oxygen: NONE

Runway Information

Runway 2/20

Dimensions: 3200 x 75 ft. / 975 x 23 m
Surface: asphalt, in poor condition
RY 2/20 WIDESPREAD MODERATE CRACKING.
Weight bearing capacity: 
Single wheel: 8.0
Runway edge lights: medium intensity
Runway edge markings: RY 2/20 MARKINGS FADED
RUNWAY 2  RUNWAY 20
Latitude: 37-36.336833N37-36.841000N
Longitude: 086-30.527167W086-30.332667W
Gradient: 0.1%0.1%
Traffic pattern: leftleft
Markings: basic, in poor conditionbasic, in poor condition
Visual slope indicator: 2-light PAPI on left (4.00 degrees glide path)4-light PAPI on left (5.00 degrees glide path)
Runway end identifier lights: yesyes
Obstructions: 24 ft. road, 404 ft. from runway, 76 ft. right of centerline, 8:1 slope to clear28 ft. tree, 569 ft. from runway, 160 ft. left of centerline, 13:1 slope to clear

Airport Ownership and Management from official FAA records

Ownership: Publicly-owned
Owner: KY DEPT OF PARKS
CAPITAL PLAZA TOWER
FRANKFORT, KY 40601
Phone 502-564-2172
Manager: MICHAEL RICKS, PARK MANAGER
450 LODGE ROAD
FALLS OF ROUGH, KY 40119
Phone 270-257-2311

Airport Operational Statistics

Aircraft operations: avg 25/day *
78% transient general aviation
13% local general aviation
7% military
2% air taxi
* for 12-month period ending 21 November 2016

Additional Remarks

TRANSPORTATION TO PARK LODGE AVAIL 270-257-2311.
SOUTH APRON CLSD INDEFLY.

Instrument Procedures

There are no published instrument procedures at 2I3.

Some nearby airports with instrument procedures:

KJQD - Ohio County Airport (19 nm SW)
KTEL - Perry County Municipal Airport (26 nm N)
KY8 - Hancock County Airport-Ron Lewis Field (26 nm NW)
KEKX - Addington Field Airport (28 nm E)
KFTK - Godman Army Airfield (31 nm NE)
 
Loc | Ops | Rwys | IFR | FBO | Links
Com | Nav | Svcs | Stats | Notes


 
Area around 2I3 (Rough River State Park Airport)
 
Road maps at: MapQuest Bing Google
 
Aerial photo
WARNING: Photo may not be current or correct
Aerial photo of 2I3 (Rough River State Park Airport)
Taken in December 2006

Do you have a better or more recent aerial photo of Rough River State Park Airport that you would like to share? If so, please send us your photo.

 
Sectional chart

 
Airport distance calculator
Flying to Rough River State Park Airport? Find the distance to fly.

From to 2I3

Sunrise and sunset
Times for 19-Jul-2018
 Local
(UTC-5)
 Zulu
(UTC)
Morning civil twilight05:1010:10
Sunrise05:4010:40
Sunset20:0401:04
Evening civil twilight20:3401:34

Current date and time
Zulu (UTC)  19-Jul-2018 10:09:22
Local (UTC-5)  19-Jul-2018 05:09:22
 
METAR
KKY8 
26nm NW 
190955Z AUTO 00000KT 10SM 16/16 A2998 RMK A01
KFTK 
30nm NE 
190956Z AUTO 00000KT 10SM CLR 16/15 A3001 RMK AO2 SLP160 T01560145
KEKX 
31nm E 
190955Z AUTO 00000KT 10SM CLR 17/16 A3000 RMK AO2 T01700155
KOWB 
32nm W 
190956Z AUTO 00000KT 10SM CLR 18/17 A2998 RMK AO2 SLP157 T01830167
KM21 
39nm SW 
190955Z AUTO 00000KT 7SM CLR 17/17 A2998 RMK AO2 T01650165
KBWG 
39nm S 
190953Z AUTO 00000KT 10SM CLR 19/18 A2998 RMK AO2 SLP147 T01940178
KGLW 
44nm SE 
190950Z AUTO 00000KT 10SM CLR 17/16 A2999 RMK AO2 T01710157
KHNB 
44nm NW 
190956Z AUTO 00000KT 8SM CLR 16/16 A2999 RMK AO2 SLP152 T01610156
K2I0 
45nm W 
190955Z AUTO 00000KT 7SM CLR 18/18 A2998 RMK AO2 T01760176
KI19 
46nm NW 
190955Z AUTO 11005KT 10SM CLR 18/13 A3008 RMK AO2 T01770125
TAF
KFTK 
30nm NE 
190100Z 1901/2007 34006KT 9999 FEW230 QNH2998INS BECMG 1917/1918 12009KT 9999 BKN100 QNH2989INS BECMG 2002/2003 18006KT 9999 SCT030 QNH2987INS TX30/1917Z TN18/1908Z
KOWB 
32nm W 
190520Z 1906/2006 00000KT P6SM SCT250 FM191400 13006KT P6SM SCT120 BKN200 FM200100 VRB03KT P6SM SCT200
NOTAMs
Click for the latest NOTAMs
NOTAMs are issued by the DoD/FAA and will open in a separate window not controlled by AirNav.

 

 
 

Would you like to see your business listed on this page?

 If your business provides an interesting product or service to pilots, flight crews, aircraft, or users of the Rough River State Park Airport, you should consider listing it here.  To start the listing process, click on the button below
 
Add a business
 

Other Pages about Rough River State Park Airport

Update a link
 
Copyright © AirNav, LLC. All rights reserved. Privacy Policy  Contact